Accokeek, Maryland
Current Conditions -  °F | °C
As of 8:55 AM on Wednesday 22 Oct 2014 (Local Time) from KDAA Reporting Station
Moderate Rain Moderate Rain  
Wind Chill: 53°   Ceiling: 4900
Heat Index: 53°   Visibility: 5mi
Dew Point: 51°   Wind: 10mph
Humidity: 91%   Direction: 320°NW
Pressure: 29.92"   Gusts: 18mph
Location:  38.67°N, 77.03°W
Report Text: KDAA 221255Z 32009G16KT 5SM RA BR FEW010 OVC049 12/10 A2992 RMK A02 SLP133 P0017 T01180104
Loading
Personal Weather Stations






























Interactive Weather Map
Tropical Storm Tracking
New forecast layout! Learn more

10-Day Weather Forecast

Advertisements
Track Severe Weather on mobile